createdAt,value
2016-10-23T00:00:03.775Z,5.7
2016-10-23T00:00:13.769Z,5.7
2016-10-23T00:00:23.763Z,5.7
2016-10-23T00:00:33.757Z,5.7
2016-10-23T00:00:43.750Z,5.8
2016-10-23T00:00:53.746Z,5.7
2016-10-23T00:01:03.738Z,5.7
2016-10-23T00:01:13.733Z,5.8
2016-10-23T00:01:23.727Z,5.8
2016-10-23T00:01:33.721Z,5.7
2016-10-23T00:01:43.716Z,5.7
2016-10-23T00:01:53.709Z,5.7
2016-10-23T00:02:03.702Z,5.8
2016-10-23T00:02:13.697Z,5.7
2016-10-23T00:02:23.690Z,5.7
2016-10-23T00:02:33.684Z,5.7
2016-10-23T00:02:43.678Z,5.8
2016-10-23T00:02:53.673Z,5.7
2016-10-23T00:03:03.667Z,5.7
2016-10-23T00:03:13.660Z,5.8
2016-10-23T00:03:23.654Z,5.8
2016-10-23T00:03:33.648Z,5.8
2016-10-23T00:03:43.642Z,5.8
2016-10-23T00:03:53.636Z,5.8
2016-10-23T00:04:03.630Z,5.8
2016-10-23T00:04:13.625Z,5.8
2016-10-23T00:04:23.618Z,5.8
2016-10-23T00:04:33.611Z,5.7
2016-10-23T00:04:43.605Z,5.8
2016-10-23T00:04:53.601Z,5.8
2016-10-23T00:05:03.593Z,5.7
2016-10-23T00:05:13.587Z,5.7
2016-10-23T00:05:23.580Z,5.7
2016-10-23T00:05:33.575Z,5.8
2016-10-23T00:05:43.570Z,5.8
2016-10-23T00:05:53.562Z,5.7
2016-10-23T00:06:03.557Z,5.7
2016-10-23T00:06:13.551Z,5.8
2016-10-23T00:06:23.544Z,5.8
2016-10-23T00:06:33.539Z,5.7
2016-10-23T00:06:43.532Z,5.7
2016-10-23T00:06:53.527Z,5.8
2016-10-23T00:07:03.521Z,5.7
2016-10-23T00:07:13.515Z,5.7
2016-10-23T00:07:23.509Z,5.7
2016-10-23T00:07:33.503Z,5.7
2016-10-23T00:07:43.496Z,5.7
2016-10-23T00:07:53.490Z,5.6
2016-10-23T00:08:03.484Z,5.8
2016-10-23T00:08:13.478Z,5.7
2016-10-23T00:08:23.472Z,5.6
2016-10-23T00:08:33.466Z,5.6
2016-10-23T00:08:43.460Z,5.7
2016-10-23T00:08:53.453Z,5.6
2016-10-23T00:09:03.446Z,5.6
2016-10-23T00:09:13.442Z,5.6
2016-10-23T00:09:23.435Z,5.6
2016-10-23T00:09:33.430Z,5.6
2016-10-23T00:09:43.423Z,5.7
2016-10-23T00:09:53.417Z,5.7
2016-10-23T00:10:03.412Z,5.7
2016-10-23T00:10:13.405Z,5.7
2016-10-23T00:10:23.399Z,5.7
2016-10-23T00:10:33.392Z,5.7
2016-10-23T00:10:43.386Z,5.7
2016-10-23T00:10:53.381Z,5.7
2016-10-23T00:11:03.376Z,5.7
2016-10-23T00:11:13.368Z,5.7
2016-10-23T00:11:23.363Z,5.7
2016-10-23T00:11:33.357Z,5.7
2016-10-23T00:11:43.350Z,5.6
2016-10-23T00:11:53.345Z,5.7
2016-10-23T00:12:03.338Z,5.7
2016-10-23T00:12:13.332Z,5.7
2016-10-23T00:12:23.327Z,5.7
2016-10-23T00:12:33.321Z,5.6
2016-10-23T00:12:43.315Z,5.6
2016-10-23T00:12:53.308Z,5.6
2016-10-23T00:13:03.301Z,5.6
2016-10-23T00:13:13.295Z,5.6
2016-10-23T00:13:23.289Z,5.6
2016-10-23T00:13:33.284Z,5.6
2016-10-23T00:13:43.278Z,5.6
2016-10-23T00:13:53.271Z,5.5
2016-10-23T00:14:03.266Z,5.6
2016-10-23T00:14:13.259Z,5.6
2016-10-23T00:14:23.253Z,5.5
2016-10-23T00:14:33.247Z,5.5
2016-10-23T00:14:43.240Z,5.6
2016-10-23T00:14:53.235Z,5.6
2016-10-23T00:15:03.229Z,5.7
2016-10-23T00:15:13.223Z,5.5
2016-10-23T00:15:23.217Z,5.6
2016-10-23T00:15:33.211Z,5.6
2016-10-23T00:15:43.204Z,5.7
2016-10-23T00:15:53.198Z,5.7
2016-10-23T00:16:03.192Z,5.6
2016-10-23T00:16:13.186Z,5.6
2016-10-23T00:16:23.181Z,5.7
2016-10-23T00:16:33.175Z,5.5
2016-10-23T00:16:43.168Z,5.6
2016-10-23T00:16:53.162Z,5.6
2016-10-23T00:17:03.155Z,5.6
2016-10-23T00:17:13.150Z,5.6
2016-10-23T00:17:23.143Z,5.6
2016-10-23T00:17:33.138Z,5.6
2016-10-23T00:17:43.132Z,5.6
2016-10-23T00:17:53.125Z,5.5
2016-10-23T00:18:03.121Z,5.6
2016-10-23T00:18:13.114Z,5.6
2016-10-23T00:18:23.107Z,5.6
2016-10-23T00:18:33.101Z,5.6
2016-10-23T00:18:43.095Z,5.7
2016-10-23T00:18:53.089Z,5.6
2016-10-23T00:19:03.083Z,5.5
2016-10-23T00:19:13.076Z,5.7
2016-10-23T00:19:23.071Z,5.6
2016-10-23T00:19:33.065Z,5.7
2016-10-23T00:19:43.059Z,5.6
2016-10-23T00:19:53.052Z,5.6
2016-10-23T00:20:03.046Z,5.6
2016-10-23T00:20:13.040Z,5.6
2016-10-23T00:20:23.035Z,5.6
2016-10-23T00:20:33.029Z,5.6
2016-10-23T00:20:43.025Z,5.6
2016-10-23T00:20:53.016Z,5.6
2016-10-23T00:21:03.010Z,5.6
2016-10-23T00:21:13.004Z,5.6
2016-10-23T00:21:22.997Z,5.6
2016-10-23T00:21:32.991Z,5.7
2016-10-23T00:21:42.987Z,5.6
2016-10-23T00:21:52.979Z,5.6
2016-10-23T00:22:02.974Z,5.5
2016-10-23T00:22:12.968Z,5.6
2016-10-23T00:22:22.961Z,5.6
2016-10-23T00:22:32.956Z,5.5
2016-10-23T00:22:42.949Z,5.4
2016-10-23T00:22:52.943Z,5.5
2016-10-23T00:23:02.937Z,5.4
2016-10-23T00:23:12.930Z,5.4
2016-10-23T00:23:22.925Z,5.4
2016-10-23T00:23:32.919Z,5.4
2016-10-23T00:23:42.912Z,5.4
2016-10-23T00:23:52.906Z,5.4
2016-10-23T00:24:02.900Z,5.5
2016-10-23T00:24:12.894Z,5.5
2016-10-23T00:24:22.889Z,5.5
2016-10-23T00:24:32.882Z,5.5
2016-10-23T00:24:42.876Z,5.5
2016-10-23T00:24:52.870Z,5.6
2016-10-23T00:25:02.865Z,5.5
2016-10-23T00:25:12.858Z,5.5
2016-10-23T00:25:22.851Z,5.5
2016-10-23T00:25:32.847Z,5.5
2016-10-23T00:25:42.840Z,5.5
2016-10-23T00:25:52.833Z,5.5
2016-10-23T00:26:02.828Z,5.6
2016-10-23T00:26:12.821Z,5.5
2016-10-23T00:26:22.815Z,5.5
2016-10-23T00:26:32.809Z,5.6
2016-10-23T00:26:42.803Z,5.6
2016-10-23T00:26:52.797Z,5.6
2016-10-23T00:27:02.792Z,5.6
2016-10-23T00:27:12.785Z,5.6
2016-10-23T00:27:22.779Z,5.5
2016-10-23T00:27:32.773Z,5.6
2016-10-23T00:27:42.767Z,5.6
2016-10-23T00:27:52.760Z,5.6
2016-10-23T00:28:02.754Z,5.5
2016-10-23T00:28:12.748Z,5.5
2016-10-23T00:28:22.743Z,5.5
2016-10-23T00:28:32.736Z,5.4
2016-10-23T00:28:42.731Z,5.5
2016-10-23T00:28:52.724Z,5.5
2016-10-23T00:29:02.719Z,5.5
2016-10-23T00:29:12.712Z,5.5
2016-10-23T00:29:22.707Z,5.6
2016-10-23T00:29:32.700Z,5.5
2016-10-23T00:29:42.694Z,5.5
2016-10-23T00:29:52.687Z,5.5
2016-10-23T00:30:02.681Z,5.5
2016-10-23T00:30:12.674Z,5.6
2016-10-23T00:30:22.669Z,5.5
2016-10-23T00:30:32.663Z,5.4
2016-10-23T00:30:42.657Z,5.5
2016-10-23T00:30:52.651Z,5.5
2016-10-23T00:31:02.646Z,5.4
2016-10-23T00:31:12.640Z,5.4
2016-10-23T00:31:22.633Z,5.5
2016-10-23T00:31:32.627Z,5.5
2016-10-23T00:31:42.620Z,5.4
2016-10-23T00:31:52.614Z,5.5
2016-10-23T00:32:02.609Z,5.3
2016-10-23T00:32:12.602Z,5.4
2016-10-23T00:32:22.596Z,5.3
2016-10-23T00:32:32.590Z,5.3
2016-10-23T00:32:42.584Z,5.4
2016-10-23T00:32:52.579Z,5.3
2016-10-23T00:33:02.572Z,5.3
2016-10-23T00:33:12.566Z,5.4
2016-10-23T00:33:22.559Z,5.3
2016-10-23T00:33:32.554Z,5.4
2016-10-23T00:33:42.549Z,5.4
2016-10-23T00:33:52.542Z,5.3
2016-10-23T00:34:02.536Z,5.3
2016-10-23T00:34:12.529Z,5.5
2016-10-23T00:34:22.523Z,5.4
2016-10-23T00:34:32.517Z,5.4
2016-10-23T00:34:42.510Z,5.4
2016-10-23T00:34:52.505Z,5.4
2016-10-23T00:35:02.500Z,5.3
2016-10-23T00:35:12.492Z,5.4
2016-10-23T00:35:22.487Z,5.5
2016-10-23T00:35:32.480Z,5.4
2016-10-23T00:35:42.474Z,5.5
2016-10-23T00:35:52.468Z,5.5
2016-10-23T00:36:02.463Z,5.4
2016-10-23T00:36:12.456Z,5.5
2016-10-23T00:36:22.450Z,5.4
2016-10-23T00:36:32.445Z,5.3
2016-10-23T00:36:42.439Z,5.3
2016-10-23T00:36:52.432Z,5.4
2016-10-23T00:37:02.425Z,5.4
2016-10-23T00:37:12.419Z,5.4
2016-10-23T00:37:22.413Z,5.4
2016-10-23T00:37:32.407Z,5.3
2016-10-23T00:37:42.402Z,5.4
2016-10-23T00:37:52.396Z,5.5
2016-10-23T00:38:02.389Z,5.4
2016-10-23T00:38:12.383Z,5.5
2016-10-23T00:38:22.377Z,5.4
2016-10-23T00:38:32.371Z,5.4
2016-10-23T00:38:42.365Z,5.5
2016-10-23T00:38:52.359Z,5.5
2016-10-23T00:39:02.353Z,5.4
2016-10-23T00:39:12.347Z,5.5
2016-10-23T00:39:22.341Z,5.5
2016-10-23T00:39:32.333Z,5.4
2016-10-23T00:39:42.327Z,5.4
2016-10-23T00:39:52.322Z,5.4
2016-10-23T00:40:02.315Z,5.4
2016-10-23T00:40:12.310Z,5.4
2016-10-23T00:40:22.304Z,5.5
2016-10-23T00:40:32.297Z,5.4
2016-10-23T00:40:42.292Z,5.4
2016-10-23T00:40:52.285Z,5.4
2016-10-23T00:41:02.279Z,5.4
2016-10-23T00:41:12.273Z,5.4
2016-10-23T00:41:22.266Z,5.4
2016-10-23T00:41:32.261Z,5.4
2016-10-23T00:41:42.255Z,5.4
2016-10-23T00:41:52.248Z,5.4
2016-10-23T00:42:02.243Z,5.5
2016-10-23T00:42:12.237Z,5.5
2016-10-23T00:42:22.230Z,5.4
2016-10-23T00:42:32.225Z,5.5
2016-10-23T00:42:42.218Z,5.3
2016-10-23T00:42:52.212Z,5.4
2016-10-23T00:43:02.208Z,5.4
2016-10-23T00:43:12.201Z,5.4
2016-10-23T00:43:22.195Z,5.4
2016-10-23T00:43:32.188Z,5.4
2016-10-23T00:43:42.181Z,5.4
2016-10-23T00:43:52.176Z,5.3
2016-10-23T00:44:02.169Z,5.3
2016-10-23T00:44:12.164Z,5.4
2016-10-23T00:44:22.158Z,5.4
2016-10-23T00:44:32.151Z,5.4
2016-10-23T00:44:42.145Z,5.3
2016-10-23T00:44:52.139Z,5.2
2016-10-23T00:45:02.133Z,5.4
2016-10-23T00:45:12.126Z,5.3
2016-10-23T00:45:22.119Z,5.4
2016-10-23T00:45:32.115Z,5.3
2016-10-23T00:45:42.109Z,5.3
2016-10-23T00:45:52.102Z,5.3
2016-10-23T00:46:02.096Z,5.4
2016-10-23T00:46:12.091Z,5.3
2016-10-23T00:46:22.084Z,5.3
2016-10-23T00:46:32.079Z,5.3
2016-10-23T00:46:42.071Z,5.2
2016-10-23T00:46:52.065Z,5.4
2016-10-23T00:47:02.061Z,5.2
2016-10-23T00:47:12.053Z,5.3
2016-10-23T00:47:22.048Z,5.3
2016-10-23T00:47:32.041Z,5.4
2016-10-23T00:47:42.034Z,5.3
2016-10-23T00:47:52.029Z,5.3
2016-10-23T00:48:02.022Z,5.4
2016-10-23T00:48:12.018Z,5.3
2016-10-23T00:48:22.014Z,5.3
2016-10-23T00:48:32.004Z,5.2
2016-10-23T00:48:42.000Z,5.3
2016-10-23T00:48:51.992Z,5.3
2016-10-23T00:49:01.986Z,5.3
2016-10-23T00:49:11.980Z,5.3
2016-10-23T00:49:21.973Z,5.2
2016-10-23T00:49:31.968Z,5.3
2016-10-23T00:49:41.963Z,5.2
2016-10-23T00:49:51.962Z,5.3
2016-10-23T00:50:01.950Z,5.4
2016-10-23T00:50:11.944Z,5.3
2016-10-23T00:50:21.937Z,5.4
2016-10-23T00:50:31.931Z,5.3
2016-10-23T00:50:41.926Z,5.3
2016-10-23T00:50:51.919Z,5.4
2016-10-23T00:51:01.915Z,5.4
2016-10-23T00:51:11.908Z,5.4
2016-10-23T00:51:21.901Z,5.4
2016-10-23T00:51:31.899Z,5.4
2016-10-23T00:51:41.888Z,5.3
2016-10-23T00:51:51.882Z,5.2
2016-10-23T00:52:01.876Z,5.3
2016-10-23T00:52:11.871Z,5.3
2016-10-23T00:52:21.864Z,5.3
2016-10-23T00:52:31.858Z,5.3
2016-10-23T00:52:41.852Z,5.3
2016-10-23T00:52:51.846Z,5.2
2016-10-23T00:53:01.839Z,5.3
2016-10-23T00:53:11.833Z,5.3
2016-10-23T00:53:21.826Z,5.4
2016-10-23T00:53:31.821Z,5.2
2016-10-23T00:53:41.816Z,5.2
2016-10-23T00:53:51.810Z,5.2
2016-10-23T00:54:01.803Z,5.3
2016-10-23T00:54:11.798Z,5.2
2016-10-23T00:54:21.791Z,5.3
2016-10-23T00:54:31.785Z,5.2
2016-10-23T00:54:41.778Z,5.2
2016-10-23T00:54:51.772Z,5.2
2016-10-23T00:55:01.768Z,5.2
2016-10-23T00:55:11.761Z,5.2
2016-10-23T00:55:21.754Z,5.3
2016-10-23T00:55:31.748Z,5.4
2016-10-23T00:55:41.740Z,5.3
2016-10-23T00:55:51.736Z,5.3
2016-10-23T00:56:01.729Z,5.2
2016-10-23T00:56:11.723Z,5.3
2016-10-23T00:56:21.717Z,5.3
2016-10-23T00:56:31.711Z,5.3
2016-10-23T00:56:41.705Z,5.4
2016-10-23T00:56:51.699Z,5.4
2016-10-23T00:57:01.693Z,5.3
2016-10-23T00:57:11.687Z,5.3
2016-10-23T00:57:21.680Z,5.3
2016-10-23T00:57:31.675Z,5.3
2016-10-23T00:57:41.669Z,5.3
2016-10-23T00:57:51.662Z,5.4
2016-10-23T00:58:01.656Z,5.4
2016-10-23T00:58:11.650Z,5.3
2016-10-23T00:58:21.643Z,5.3
2016-10-23T00:58:31.638Z,5.3
2016-10-23T00:58:41.631Z,5.3
2016-10-23T00:58:51.627Z,5.3
2016-10-23T00:59:01.620Z,5.4
2016-10-23T00:59:11.613Z,5.3
2016-10-23T00:59:21.607Z,5.3
2016-10-23T00:59:31.602Z,5.3
2016-10-23T00:59:41.596Z,5.2
2016-10-23T00:59:51.589Z,5.3
2016-10-23T01:00:01.582Z,5.3
2016-10-23T01:00:11.577Z,5.4
2016-10-23T01:00:21.571Z,5.2
2016-10-23T01:00:31.588Z,5.4
2016-10-23T01:00:41.558Z,5.4
2016-10-23T01:00:51.552Z,5.3
2016-10-23T01:01:01.546Z,5.3
2016-10-23T01:01:11.540Z,5.2
2016-10-23T01:01:21.533Z,5.2
2016-10-23T01:01:31.528Z,5.2
2016-10-23T01:01:41.523Z,5.2
2016-10-23T01:01:51.515Z,5.2
2016-10-23T01:02:01.510Z,5.1
2016-10-23T01:02:11.503Z,5.2
2016-10-23T01:02:21.497Z,5.2
2016-10-23T01:02:31.491Z,5.2
2016-10-23T01:02:41.485Z,5.3
2016-10-23T01:02:51.479Z,5.2
2016-10-23T01:03:01.473Z,5.2
2016-10-23T01:03:11.465Z,5.2
2016-10-23T01:03:21.460Z,5.3
2016-10-23T01:03:31.455Z,5.3
2016-10-23T01:03:41.448Z,5.3
2016-10-23T01:03:51.461Z,5.2
2016-10-23T01:04:01.436Z,5.2
2016-10-23T01:04:11.430Z,5.1
2016-10-23T01:04:21.425Z,5.2
2016-10-23T01:04:31.417Z,5.2
2016-10-23T01:04:41.411Z,5.2
2016-10-23T01:04:51.405Z,5.2
2016-10-23T01:05:01.399Z,5.2
2016-10-23T01:05:11.393Z,5.1
2016-10-23T01:05:21.387Z,5.2
2016-10-23T01:05:31.381Z,5.2
2016-10-23T01:05:41.375Z,5.2
2016-10-23T01:05:51.369Z,5.2
2016-10-23T01:06:01.362Z,5.1
2016-10-23T01:06:11.356Z,5.2
2016-10-23T01:06:21.350Z,5.2
2016-10-23T01:06:31.344Z,5.2
2016-10-23T01:06:41.338Z,5.2
2016-10-23T01:06:51.331Z,5.2
2016-10-23T01:07:01.326Z,5.2
2016-10-23T01:07:11.319Z,5.2
2016-10-23T01:07:21.313Z,5.2
2016-10-23T01:07:31.308Z,5.3
2016-10-23T01:07:41.301Z,5.2
2016-10-23T01:07:51.295Z,5.2
2016-10-23T01:08:01.289Z,5.2
2016-10-23T01:08:11.284Z,5.4
2016-10-23T01:08:21.277Z,5.3
2016-10-23T01:08:31.270Z,5.3
2016-10-23T01:08:41.264Z,5.3
2016-10-23T01:08:51.259Z,5.3
2016-10-23T01:09:01.252Z,5.2
2016-10-23T01:09:11.246Z,5.2
2016-10-23T01:09:21.239Z,5.2
2016-10-23T01:09:31.234Z,5.2
2016-10-23T01:09:41.229Z,5.2
2016-10-23T01:09:51.221Z,5.1
2016-10-23T01:10:01.215Z,5.1
2016-10-23T01:10:11.210Z,5.2
2016-10-23T01:10:21.203Z,5.2
2016-10-23T01:10:31.198Z,5.2
2016-10-23T01:10:41.190Z,5.2
2016-10-23T01:10:51.185Z,5.1
2016-10-23T01:11:01.179Z,5.2
2016-10-23T01:11:11.172Z,5.1
2016-10-23T01:11:21.167Z,5.1
2016-10-23T01:11:31.161Z,5.2
2016-10-23T01:11:41.154Z,5.2
2016-10-23T01:11:51.148Z,5.2
2016-10-23T01:12:01.141Z,5.1
2016-10-23T01:12:11.137Z,5.2
2016-10-23T01:12:21.131Z,5.1
2016-10-23T01:12:31.122Z,5.2
2016-10-23T01:12:41.117Z,5.2
2016-10-23T01:12:51.112Z,5.2
2016-10-23T01:13:01.105Z,5.1
2016-10-23T01:13:11.100Z,5.2
2016-10-23T01:13:21.092Z,5.1
2016-10-23T01:13:31.087Z,5.2
2016-10-23T01:13:41.082Z,5.1
2016-10-23T01:13:51.074Z,5.2
2016-10-23T01:14:01.068Z,5.2
2016-10-23T01:14:11.062Z,5.1
2016-10-23T01:14:21.056Z,5.2
2016-10-23T01:14:31.050Z,5.2
2016-10-23T01:14:41.045Z,5.1
2016-10-23T01:14:51.039Z,5.2
2016-10-23T01:15:01.032Z,5.2
2016-10-23T01:15:11.025Z,5.1
2016-10-23T01:15:21.020Z,5.2
2016-10-23T01:15:31.014Z,5.2
2016-10-23T01:15:41.007Z,5.2
2016-10-23T01:15:51.001Z,5.2
2016-10-23T01:16:00.995Z,5.2
2016-10-23T01:16:10.989Z,5.1
2016-10-23T01:16:20.984Z,5.1
2016-10-23T01:16:30.976Z,5.1
2016-10-23T01:16:40.970Z,5.1
2016-10-23T01:16:50.964Z,5.2
2016-10-23T01:17:00.958Z,5.1
2016-10-23T01:17:10.952Z,5.2
2016-10-23T01:17:20.945Z,5.1
2016-10-23T01:17:30.941Z,5.1
2016-10-23T01:17:40.934Z,5.1
2016-10-23T01:17:50.927Z,5.1
2016-10-23T01:18:00.922Z,5.1
2016-10-23T01:18:10.915Z,5
2016-10-23T01:18:20.909Z,5.2
2016-10-23T01:18:30.903Z,5.1
2016-10-23T01:18:40.896Z,5.1
2016-10-23T01:18:50.890Z,5.1
2016-10-23T01:19:00.885Z,5.1
2016-10-23T01:19:10.878Z,5.1
2016-10-23T01:19:20.871Z,5.1
2016-10-23T01:19:30.867Z,5.1
2016-10-23T01:19:40.859Z,5.1
2016-10-23T01:19:50.854Z,5
2016-10-23T01:20:00.847Z,5.1
2016-10-23T01:20:10.843Z,5.1
2016-10-23T01:20:20.836Z,5.1
2016-10-23T01:20:30.829Z,5
2016-10-23T01:20:40.823Z,5.1
2016-10-23T01:20:50.817Z,5.1
2016-10-23T01:21:00.815Z,5.1
2016-10-23T01:21:10.805Z,5.1
2016-10-23T01:21:20.798Z,5.1
2016-10-23T01:21:30.796Z,5.1
2016-10-23T01:21:40.787Z,5.1
2016-10-23T01:21:50.779Z,5
2016-10-23T01:22:00.774Z,5
2016-10-23T01:22:10.768Z,5
2016-10-23T01:22:20.762Z,5
2016-10-23T01:22:30.756Z,5
2016-10-23T01:22:40.749Z,5
2016-10-23T01:22:50.745Z,5
2016-10-23T01:23:00.739Z,5.1
2016-10-23T01:23:10.730Z,5
2016-10-23T01:23:20.725Z,5
2016-10-23T01:23:30.719Z,5.1
2016-10-23T01:23:40.712Z,5.1
2016-10-23T01:23:50.708Z,5
2016-10-23T01:24:00.700Z,5
2016-10-23T01:24:10.695Z,5
2016-10-23T01:24:20.689Z,5
2016-10-23T01:24:30.681Z,5
2016-10-23T01:24:40.676Z,5.1
2016-10-23T01:24:50.670Z,5
2016-10-23T01:25:00.663Z,5
2016-10-23T01:25:10.659Z,5
2016-10-23T01:25:20.652Z,5
2016-10-23T01:25:30.645Z,5
2016-10-23T01:25:40.639Z,5
2016-10-23T01:25:50.632Z,5
2016-10-23T01:26:00.627Z,5
2016-10-23T01:26:10.621Z,5
2016-10-23T01:26:20.614Z,5
2016-10-23T01:26:30.609Z,5
2016-10-23T01:26:40.602Z,5
2016-10-23T01:26:50.596Z,5
2016-10-23T01:27:00.590Z,5
2016-10-23T01:27:10.583Z,5
2016-10-23T01:27:20.578Z,5
2016-10-23T01:27:30.572Z,5
2016-10-23T01:27:40.565Z,5
2016-10-23T01:27:50.560Z,5
2016-10-23T01:28:00.554Z,5
2016-10-23T01:28:10.547Z,5
2016-10-23T01:28:20.541Z,5
2016-10-23T01:28:30.534Z,5
2016-10-23T01:28:40.528Z,5
2016-10-23T01:28:50.523Z,4.9
2016-10-23T01:29:00.516Z,5
2016-10-23T01:29:10.510Z,5
2016-10-23T01:29:20.503Z,5
2016-10-23T01:29:30.498Z,5
2016-10-23T01:29:40.493Z,5
2016-10-23T01:29:50.485Z,5
2016-10-23T01:30:00.479Z,4.9
2016-10-23T01:30:10.474Z,5
2016-10-23T01:30:20.468Z,5
2016-10-23T01:30:30.461Z,5
2016-10-23T01:30:40.454Z,5
2016-10-23T01:30:50.449Z,5
2016-10-23T01:31:00.442Z,5
2016-10-23T01:31:10.436Z,5
2016-10-23T01:31:20.430Z,4.9
2016-10-23T01:31:30.424Z,4.9
2016-10-23T01:31:40.418Z,4.9
2016-10-23T01:31:50.412Z,4.9
2016-10-23T01:32:00.405Z,4.9
2016-10-23T01:32:10.399Z,5
2016-10-23T01:32:20.394Z,4.9
2016-10-23T01:32:30.387Z,4.9
2016-10-23T01:32:40.383Z,4.9
2016-10-23T01:32:50.375Z,4.9
2016-10-23T01:33:00.369Z,4.9
2016-10-23T01:33:10.363Z,4.9
2016-10-23T01:33:20.356Z,4.9
2016-10-23T01:33:30.350Z,5
2016-10-23T01:33:40.347Z,4.9
2016-10-23T01:33:50.338Z,5
2016-10-23T01:34:00.332Z,5
2016-10-23T01:34:10.326Z,5
2016-10-23T01:34:20.319Z,5
2016-10-23T01:34:30.315Z,5
2016-10-23T01:34:40.307Z,5
2016-10-23T01:34:50.301Z,5
2016-10-23T01:35:00.294Z,5
2016-10-23T01:35:10.287Z,4.9
2016-10-23T01:35:20.283Z,5
2016-10-23T01:35:30.277Z,5
2016-10-23T01:35:40.270Z,5
2016-10-23T01:35:50.265Z,5
2016-10-23T01:36:00.258Z,5
2016-10-23T01:36:10.252Z,5
2016-10-23T01:36:20.246Z,5
2016-10-23T01:36:30.239Z,5
2016-10-23T01:36:40.233Z,4.9
2016-10-23T01:36:50.228Z,5
2016-10-23T01:37:00.222Z,5
2016-10-23T01:37:10.216Z,5
2016-10-23T01:37:20.208Z,5
2016-10-23T01:37:30.202Z,5
2016-10-23T01:37:40.196Z,5.1
2016-10-23T01:37:50.190Z,5
2016-10-23T01:38:00.184Z,5
2016-10-23T01:38:10.179Z,4.9
2016-10-23T01:38:20.172Z,4.9
2016-10-23T01:38:30.166Z,4.9
2016-10-23T01:38:40.159Z,4.9
2016-10-23T01:38:50.153Z,4.9
2016-10-23T01:39:00.147Z,4.9
2016-10-23T01:39:10.141Z,4.9
2016-10-23T01:39:20.135Z,4.9
2016-10-23T01:39:30.129Z,4.9
2016-10-23T01:39:40.124Z,4.8
2016-10-23T01:39:50.118Z,4.8
2016-10-23T01:40:00.109Z,4.7
2016-10-23T01:40:10.104Z,4.8
2016-10-23T01:40:20.098Z,4.7
2016-10-23T01:40:30.092Z,4.7
2016-10-23T01:40:40.086Z,4.8
2016-10-23T01:40:50.080Z,4.8
2016-10-23T01:41:00.073Z,4.8
2016-10-23T01:41:10.070Z,4.9
2016-10-23T01:41:20.061Z,4.9
2016-10-23T01:41:30.055Z,4.9
2016-10-23T01:41:40.051Z,5
2016-10-23T01:41:50.042Z,4.9
2016-10-23T01:42:00.037Z,4.9
2016-10-23T01:42:10.031Z,4.9
2016-10-23T01:42:20.024Z,4.9
2016-10-23T01:42:30.018Z,4.9
2016-10-23T01:42:40.012Z,4.8
2016-10-23T01:42:50.004Z,4.8
2016-10-23T01:43:00.000Z,4.8
2016-10-23T01:43:09.993Z,4.8
2016-10-23T01:43:19.987Z,4.8
2016-10-23T01:43:29.982Z,4.8
2016-10-23T01:43:39.976Z,4.8
2016-10-23T01:43:49.969Z,4.9
2016-10-23T01:43:59.962Z,4.8
2016-10-23T01:44:09.957Z,4.8
2016-10-23T01:44:19.950Z,4.7
2016-10-23T01:44:29.943Z,4.7
2016-10-23T01:44:39.940Z,4.8
2016-10-23T01:44:49.932Z,4.9
2016-10-23T01:44:59.926Z,4.8
2016-10-23T01:45:09.919Z,4.8
2016-10-23T01:45:19.913Z,4.9
2016-10-23T01:45:29.907Z,4.9
2016-10-23T01:45:39.901Z,4.9
2016-10-23T01:45:49.894Z,4.9
2016-10-23T01:45:59.889Z,4.8
2016-10-23T01:46:09.884Z,4.9
2016-10-23T01:46:19.877Z,4.8
2016-10-23T01:46:29.871Z,4.9
2016-10-23T01:46:39.863Z,4.9
2016-10-23T01:46:49.857Z,4.9
2016-10-23T01:46:59.851Z,4.9
2016-10-23T01:47:09.844Z,4.8
2016-10-23T01:47:19.840Z,4.8
2016-10-23T01:47:29.834Z,4.8
2016-10-23T01:47:39.827Z,4.9
2016-10-23T01:47:49.821Z,4.8
2016-10-23T01:47:59.814Z,4.8
2016-10-23T01:48:09.809Z,4.8
2016-10-23T01:48:19.803Z,4.8
2016-10-23T01:48:29.796Z,4.9
2016-10-23T01:48:39.790Z,4.9
2016-10-23T01:48:49.786Z,4.9
2016-10-23T01:48:59.777Z,4.9
2016-10-23T01:49:09.781Z,4.9
2016-10-23T01:49:19.765Z,4.8
2016-10-23T01:49:29.759Z,4.8
2016-10-23T01:49:39.754Z,4.8
2016-10-23T01:49:49.747Z,4.9
2016-10-23T01:49:59.741Z,4.8
2016-10-23T01:50:09.735Z,4.8
2016-10-23T01:50:19.728Z,4.9
2016-10-23T01:50:29.722Z,4.8
2016-10-23T01:50:39.716Z,4.9
2016-10-23T01:50:49.710Z,4.8
2016-10-23T01:50:59.704Z,4.9
2016-10-23T01:51:09.698Z,4.9
2016-10-23T01:51:19.692Z,4.9
2016-10-23T01:51:29.689Z,4.8
2016-10-23T01:51:39.679Z,4.8
2016-10-23T01:51:49.673Z,4.8
2016-10-23T01:51:59.666Z,4.8
2016-10-23T01:52:09.660Z,4.8
2016-10-23T01:52:19.656Z,4.8
2016-10-23T01:52:29.649Z,4.8
2016-10-23T01:52:39.642Z,4.8
2016-10-23T01:52:49.636Z,4.8
2016-10-23T01:52:59.629Z,4.8
2016-10-23T01:53:09.624Z,4.9
2016-10-23T01:53:19.617Z,4.8
2016-10-23T01:53:29.611Z,4.8
2016-10-23T01:53:39.604Z,4.9
2016-10-23T01:53:49.599Z,4.9
2016-10-23T01:53:59.594Z,4.9
2016-10-23T01:54:09.589Z,4.9
2016-10-23T01:54:19.580Z,4.8
2016-10-23T01:54:29.575Z,4.9
2016-10-23T01:54:39.568Z,4.8
2016-10-23T01:54:49.562Z,4.8
2016-10-23T01:54:59.556Z,4.8
2016-10-23T01:55:09.550Z,4.8
2016-10-23T01:55:19.544Z,4.8
2016-10-23T01:55:29.537Z,4.7
2016-10-23T01:55:39.531Z,4.7
2016-10-23T01:55:49.525Z,4.8
2016-10-23T01:55:59.519Z,4.7
2016-10-23T01:56:09.513Z,4.8
2016-10-23T01:56:19.507Z,4.8
2016-10-23T01:56:29.502Z,4.7
2016-10-23T01:56:39.495Z,4.7
2016-10-23T01:56:49.490Z,4.7
2016-10-23T01:56:59.482Z,4.8
2016-10-23T01:57:09.478Z,4.7
2016-10-23T01:57:19.469Z,4.7
2016-10-23T01:57:29.464Z,4.6
2016-10-23T01:57:39.458Z,4.7
2016-10-23T01:57:49.451Z,4.7
2016-10-23T01:57:59.447Z,4.7
2016-10-23T01:58:09.440Z,4.7
2016-10-23T01:58:19.433Z,4.7
2016-10-23T01:58:29.427Z,4.6
2016-10-23T01:58:39.421Z,4.7
2016-10-23T01:58:49.415Z,4.6
2016-10-23T01:58:59.410Z,4.8
2016-10-23T01:59:09.402Z,4.7
2016-10-23T01:59:19.397Z,4.7
2016-10-23T01:59:29.390Z,4.7
2016-10-23T01:59:39.382Z,4.6
2016-10-23T01:59:49.377Z,4.5
2016-10-23T01:59:59.371Z,4.6
2016-10-23T02:00:09.366Z,4.6
2016-10-23T02:00:19.364Z,4.6
2016-10-23T02:00:29.353Z,4.7
2016-10-23T02:00:39.347Z,4.7
2016-10-23T02:00:49.341Z,4.6
2016-10-23T02:00:59.334Z,4.7
2016-10-23T02:01:09.328Z,4.6
2016-10-23T02:01:19.322Z,4.7
2016-10-23T02:01:29.316Z,4.8
2016-10-23T02:01:39.311Z,4.6
2016-10-23T02:01:49.305Z,4.7
2016-10-23T02:01:59.298Z,4.6
2016-10-23T02:02:09.291Z,4.6
2016-10-23T02:02:19.285Z,4.7
2016-10-23T02:02:29.279Z,4.7
2016-10-23T02:02:39.273Z,4.7
2016-10-23T02:02:49.268Z,4.7
2016-10-23T02:02:59.261Z,4.7
2016-10-23T02:03:09.254Z,4.6
2016-10-23T02:03:19.250Z,4.7
2016-10-23T02:03:29.243Z,4.6
2016-10-23T02:03:39.236Z,4.7
2016-10-23T02:03:49.230Z,4.8
2016-10-23T02:03:59.223Z,4.6
2016-10-23T02:04:09.219Z,4.7
2016-10-23T02:04:19.212Z,4.6
2016-10-23T02:04:29.205Z,4.7
2016-10-23T02:04:39.199Z,4.6
2016-10-23T02:04:49.192Z,4.7
2016-10-23T02:04:59.187Z,4.7
2016-10-23T02:05:09.181Z,4.7
2016-10-23T02:05:19.174Z,4.8
2016-10-23T02:05:29.169Z,4.7
2016-10-23T02:05:39.163Z,4.7
2016-10-23T02:05:49.155Z,4.8
2016-10-23T02:05:59.150Z,4.7
2016-10-23T02:06:09.144Z,4.7
2016-10-23T02:06:19.137Z,4.6
2016-10-23T02:06:29.131Z,4.7
2016-10-23T02:06:39.124Z,4.7
2016-10-23T02:06:49.119Z,4.7
2016-10-23T02:06:59.113Z,4.7
2016-10-23T02:07:09.108Z,4.7
2016-10-23T02:07:19.101Z,4.6
2016-10-23T02:07:29.094Z,4.7
2016-10-23T02:07:39.092Z,4.7
2016-10-23T02:07:49.082Z,4.7
2016-10-23T02:07:59.076Z,4.6
2016-10-23T02:08:09.070Z,4.6
2016-10-23T02:08:19.064Z,4.6
2016-10-23T02:08:29.057Z,4.6
2016-10-23T02:08:39.051Z,4.6
2016-10-23T02:08:49.045Z,4.6
2016-10-23T02:08:59.039Z,4.6
2016-10-23T02:09:09.032Z,4.6
2016-10-23T02:09:19.028Z,4.6
2016-10-23T02:09:29.021Z,4.6
2016-10-23T02:09:39.015Z,4.7
2016-10-23T02:09:49.008Z,4.6
2016-10-23T02:09:59.001Z,4.6
2016-10-23T02:10:08.996Z,4.7
2016-10-23T02:10:18.990Z,4.7
2016-10-23T02:10:28.983Z,4.6
2016-10-23T02:10:38.978Z,4.7
2016-10-23T02:10:48.971Z,4.7
2016-10-23T02:10:58.967Z,4.7
2016-10-23T02:11:08.959Z,4.7
2016-10-23T02:11:18.952Z,4.7
2016-10-23T02:11:28.946Z,4.8
2016-10-23T02:11:38.942Z,4.8
2016-10-23T02:11:48.934Z,4.8
2016-10-23T02:11:58.929Z,4.8
2016-10-23T02:12:08.922Z,4.8
2016-10-23T02:12:18.916Z,4.8
2016-10-23T02:12:28.909Z,4.7
2016-10-23T02:12:38.903Z,4.8
2016-10-23T02:12:48.897Z,4.7
2016-10-23T02:12:58.891Z,4.7
2016-10-23T02:13:08.885Z,4.7
2016-10-23T02:13:18.878Z,4.7
2016-10-23T02:13:28.872Z,4.7
2016-10-23T02:13:38.867Z,4.6
2016-10-23T02:13:48.860Z,4.6
2016-10-23T02:13:58.854Z,4.7
2016-10-23T02:14:08.848Z,4.6
2016-10-23T02:14:18.841Z,4.6
2016-10-23T02:14:28.837Z,4.7
2016-10-23T02:14:38.830Z,4.7
2016-10-23T02:14:48.823Z,4.6
2016-10-23T02:14:58.817Z,4.5
2016-10-23T02:15:08.810Z,4.6
2016-10-23T02:15:18.804Z,4.5
2016-10-23T02:15:28.799Z,4.5
2016-10-23T02:15:38.792Z,4.6
2016-10-23T02:15:48.786Z,4.5
2016-10-23T02:15:58.779Z,4.6
2016-10-23T02:16:08.773Z,4.6
2016-10-23T02:16:18.768Z,4.6
2016-10-23T02:16:28.761Z,4.6
2016-10-23T02:16:38.756Z,4.6
2016-10-23T02:16:48.749Z,4.6
2016-10-23T02:16:58.743Z,4.6
2016-10-23T02:17:08.738Z,4.6
2016-10-23T02:17:18.730Z,4.7
2016-10-23T02:17:28.724Z,4.7
2016-10-23T02:17:38.717Z,4.6
2016-10-23T02:17:48.712Z,4.7
2016-10-23T02:17:58.706Z,4.6
2016-10-23T02:18:08.702Z,4.6
2016-10-23T02:18:18.693Z,4.6
2016-10-23T02:18:28.687Z,4.7